Terminal Aerodrome Forecast
Issued by NWS

Home | Current Version | Previous Version | Text Only | Print | Product List | Glossary On
Versions: 1 2 3 4 5 6 7 8 9 10 11 12 13 14 15 16 17
000
FTUS43 KJKL 230726 AAA
TAFSME
TAF AMD
KSME 230726Z 2307/2406 00000KT 6SM BR SKC
     FM230800 00000KT 4SM BR SKC
      TEMPO 2309/2312 2SM BR BKN003
     FM231300 VRB03KT P6SM SKC=

USA.gov is the U.S. government's official web portal to all federal, state and local government web resources and services.